createdAt,value
2022-12-08T00:01:07.461Z,-0.45
2022-12-08T00:03:34.481Z,-0.32
2022-12-08T00:06:20.501Z,-0.21
2022-12-08T00:09:05.941Z,-0.18
2022-12-08T00:11:32.634Z,-0.10
2022-12-08T00:13:59.268Z,0.10
2022-12-08T00:16:26.108Z,-0.16
2022-12-08T00:18:52.804Z,-0.26
2022-12-08T00:21:19.518Z,-0.16
2022-12-08T00:23:46.193Z,0.13
2022-12-08T00:26:12.794Z,0.24
2022-12-08T00:28:39.489Z,-0.09
2022-12-08T00:31:10.102Z,0.26
2022-12-08T00:33:38.137Z,0.16
2022-12-08T00:36:08.754Z,-0.20
2022-12-08T00:38:36.361Z,-0.13
2022-12-08T00:41:03.729Z,-0.10
2022-12-08T00:43:30.467Z,-0.56
2022-12-08T00:45:57.458Z,-0.73
2022-12-08T00:48:24.240Z,-0.58
2022-12-08T00:50:50.853Z,-0.14
2022-12-08T00:53:17.701Z,-0.01
2022-12-08T00:55:44.328Z,-0.47
2022-12-08T00:58:10.965Z,-0.17
2022-12-08T01:00:37.613Z,0.12
2022-12-08T01:03:04.339Z,0.12
2022-12-08T01:05:31.142Z,-0.06
2022-12-08T01:07:57.779Z,-0.35
2022-12-08T01:10:24.449Z,-0.45
2022-12-08T01:12:51.120Z,-0.25
2022-12-08T01:15:17.750Z,-0.31
2022-12-08T01:17:44.390Z,-0.34
2022-12-08T01:20:11.400Z,-0.26
2022-12-08T01:22:38.082Z,-0.25
2022-12-08T01:25:04.993Z,-0.33
2022-12-08T01:27:31.660Z,-0.26
2022-12-08T01:29:58.288Z,-0.42
2022-12-08T01:32:24.933Z,-0.55
2022-12-08T01:34:51.596Z,-0.37
2022-12-08T01:37:18.286Z,-0.49
2022-12-08T01:39:44.964Z,-0.53
2022-12-08T01:42:20.432Z,-0.51
2022-12-08T01:44:52.621Z,-0.67
2022-12-08T01:47:19.269Z,-0.48
2022-12-08T01:49:45.961Z,-0.53
2022-12-08T01:52:21.724Z,-0.66
2022-12-08T01:54:51.441Z,-0.47
2022-12-08T01:57:27.595Z,-0.63
2022-12-08T01:59:57.918Z,-0.46
2022-12-08T02:02:24.610Z,-0.43
2022-12-08T02:04:51.358Z,-0.92
2022-12-08T02:07:17.980Z,-1.67
2022-12-08T02:09:44.619Z,-1.26
2022-12-08T02:12:11.254Z,-0.89
2022-12-08T02:14:37.918Z,-0.62
2022-12-08T02:17:35.583Z,-0.53
2022-12-08T02:20:23.991Z,-0.98
2022-12-08T02:23:18.280Z,-0.79
2022-12-08T02:26:29.872Z,-0.78
2022-12-08T02:29:09.414Z,-0.82
2022-12-08T02:31:57.794Z,-0.89
2022-12-08T02:34:35.054Z,-0.76
2022-12-08T02:37:08.177Z,-0.43
2022-12-08T02:40:20.698Z,-0.41
2022-12-08T02:43:13.292Z,-0.33
2022-12-08T02:45:43.583Z,-0.41
2022-12-08T02:48:10.189Z,-0.36
2022-12-08T02:50:36.894Z,-0.30
2022-12-08T02:55:49.010Z,-0.62
2022-12-08T02:58:21.539Z,-0.57
2022-12-08T03:01:01.642Z,-0.14
2022-12-08T03:03:40.330Z,-0.12
2022-12-08T03:06:09.784Z,-0.11
2022-12-08T03:08:44.652Z,-0.11
2022-12-08T03:11:25.249Z,-0.14
2022-12-08T03:13:53.553Z,0.00
2022-12-08T03:16:25.821Z,-0.16
2022-12-08T03:19:26.806Z,0.10
2022-12-08T03:22:00.439Z,0.11
2022-12-08T03:24:27.191Z,0.07
2022-12-08T03:26:59.617Z,0.09
2022-12-08T03:29:26.254Z,0.11
2022-12-08T03:31:55.718Z,-0.21
2022-12-08T03:34:23.379Z,-0.20
2022-12-08T03:36:50.064Z,-0.38
2022-12-08T03:39:16.758Z,-0.30
2022-12-08T03:41:43.460Z,-0.60
2022-12-08T03:44:10.265Z,-0.49
2022-12-08T03:46:36.926Z,-0.26
2022-12-08T03:49:03.560Z,-0.90
2022-12-08T03:51:30.165Z,-1.47
2022-12-08T03:53:57.019Z,-1.38
2022-12-08T03:56:30.770Z,-1.15
2022-12-08T03:58:57.362Z,-0.90
2022-12-08T04:01:24.214Z,-0.78
2022-12-08T04:03:51.062Z,-0.86
2022-12-08T04:06:17.710Z,-0.65
2022-12-08T04:08:44.436Z,-0.29
2022-12-08T04:11:11.073Z,0.04
2022-12-08T04:13:38.528Z,-0.01
2022-12-08T04:16:05.620Z,0.13
2022-12-08T04:18:32.979Z,0.05
2022-12-08T04:20:59.646Z,-0.56
2022-12-08T04:23:26.248Z,-0.37
2022-12-08T04:25:53.107Z,-0.42
2022-12-08T04:28:19.816Z,-0.77
2022-12-08T04:30:48.262Z,-0.66
2022-12-08T04:33:15.092Z,-0.54
2022-12-08T04:35:41.714Z,-0.54
2022-12-08T04:38:08.406Z,-0.44
2022-12-08T04:40:35.118Z,-0.31
2022-12-08T04:43:01.720Z,-0.29
2022-12-08T04:45:28.413Z,-0.04
2022-12-08T04:47:55.036Z,0.06
2022-12-08T04:50:21.675Z,0.12
2022-12-08T04:52:48.430Z,0.02
2022-12-08T04:55:15.203Z,0.18
2022-12-08T04:57:41.880Z,0.43
2022-12-08T05:00:08.869Z,0.19
2022-12-08T05:02:35.974Z,0.41
2022-12-08T05:05:02.676Z,0.03
2022-12-08T05:07:29.421Z,-0.06
2022-12-08T05:09:56.093Z,0.10
2022-12-08T05:12:22.698Z,0.21
2022-12-08T05:14:49.405Z,0.19
2022-12-08T05:17:17.213Z,0.06
2022-12-08T05:19:43.933Z,0.21
2022-12-08T05:22:10.522Z,0.45
2022-12-08T05:24:38.054Z,0.70
2022-12-08T05:27:07.076Z,0.36
2022-12-08T05:29:33.762Z,0.52
2022-12-08T05:32:00.489Z,0.64
2022-12-08T05:34:27.241Z,0.83
2022-12-08T05:36:53.873Z,0.96
2022-12-08T05:39:20.515Z,0.77
2022-12-08T05:41:47.162Z,0.25
2022-12-08T05:44:13.886Z,0.32
2022-12-08T05:46:40.586Z,0.48
2022-12-08T05:49:07.293Z,0.43
2022-12-08T05:51:33.923Z,0.38
2022-12-08T05:54:00.507Z,0.58
2022-12-08T05:56:27.174Z,0.82
2022-12-08T05:58:54.007Z,1.06
2022-12-08T06:01:25.724Z,0.80
2022-12-08T06:03:52.517Z,1.02
2022-12-08T06:06:19.397Z,1.27
2022-12-08T06:08:46.180Z,0.94
2022-12-08T06:11:23.454Z,0.99
2022-12-08T06:13:50.197Z,0.94
2022-12-08T06:16:17.139Z,0.91
2022-12-08T06:18:44.186Z,0.88
2022-12-08T06:21:11.877Z,0.84
2022-12-08T06:23:38.596Z,0.88
2022-12-08T06:26:10.073Z,0.87
2022-12-08T06:28:36.866Z,0.96
2022-12-08T06:31:11.080Z,0.92
2022-12-08T06:33:37.986Z,0.94
2022-12-08T06:36:05.766Z,1.16
2022-12-08T06:38:32.494Z,1.26
2022-12-08T06:40:59.376Z,1.23
2022-12-08T06:43:26.539Z,1.30
2022-12-08T06:45:53.523Z,1.45
2022-12-08T06:48:20.292Z,1.29
2022-12-08T06:50:46.931Z,1.40
2022-12-08T06:53:14.953Z,1.67
2022-12-08T06:55:59.164Z,1.81
2022-12-08T06:58:26.373Z,1.83
2022-12-08T07:00:53.726Z,1.86
2022-12-08T07:03:20.672Z,1.95
2022-12-08T07:05:47.433Z,2.00
2022-12-08T07:08:14.285Z,2.06
2022-12-08T07:10:41.012Z,2.21
2022-12-08T07:13:07.687Z,1.84
2022-12-08T07:15:34.331Z,1.72
2022-12-08T07:18:01.020Z,1.68
2022-12-08T07:20:27.884Z,1.87
2022-12-08T07:22:54.515Z,2.10
2022-12-08T07:25:21.208Z,2.11
2022-12-08T07:27:47.963Z,2.20
2022-12-08T07:30:15.069Z,2.31
2022-12-08T07:32:41.827Z,2.59
2022-12-08T07:35:10.218Z,2.66
2022-12-08T07:37:37.635Z,2.78
2022-12-08T07:40:06.116Z,2.89
2022-12-08T07:42:33.146Z,3.12
2022-12-08T07:44:59.761Z,3.19
2022-12-08T07:47:26.505Z,3.25
2022-12-08T07:49:53.074Z,3.39
2022-12-08T07:52:19.703Z,3.30
2022-12-08T07:54:47.002Z,3.12
2022-12-08T07:57:13.651Z,3.28
2022-12-08T07:59:40.312Z,3.06
2022-12-08T08:02:24.102Z,3.36
2022-12-08T08:04:51.950Z,3.50
2022-12-08T08:07:18.652Z,3.37
2022-12-08T08:09:45.913Z,3.57
2022-12-08T08:12:33.255Z,3.76
2022-12-08T08:15:00.249Z,4.06
2022-12-08T08:17:27.069Z,4.10
2022-12-08T08:19:53.799Z,4.09
2022-12-08T08:22:20.519Z,4.25
2022-12-08T08:24:47.173Z,4.46
2022-12-08T08:27:14.032Z,4.48
2022-12-08T08:29:40.744Z,4.58
2022-12-08T08:32:07.309Z,4.74
2022-12-08T08:34:34.001Z,4.81
2022-12-08T08:37:00.695Z,5.16
2022-12-08T08:39:27.618Z,5.58
2022-12-08T08:41:54.236Z,5.66
2022-12-08T08:44:20.799Z,6.03
2022-12-08T08:46:47.648Z,6.21
2022-12-08T08:49:14.293Z,6.30
2022-12-08T08:51:40.977Z,6.30
2022-12-08T08:54:07.578Z,6.38
2022-12-08T08:56:34.219Z,6.47
2022-12-08T08:59:01.802Z,6.54
2022-12-08T09:01:28.740Z,6.70
2022-12-08T09:03:56.009Z,7.32
2022-12-08T09:06:23.332Z,7.82
2022-12-08T09:08:50.370Z,7.92
2022-12-08T09:11:18.690Z,8.10
2022-12-08T09:13:48.439Z,7.90
2022-12-08T09:16:15.067Z,8.31
2022-12-08T09:18:42.003Z,8.53
2022-12-08T09:21:13.075Z,8.46
2022-12-08T09:23:39.913Z,8.70
2022-12-08T09:26:06.551Z,8.79
2022-12-08T09:28:33.249Z,8.84
2022-12-08T09:31:00.289Z,9.01
2022-12-08T09:33:27.101Z,9.15
2022-12-08T09:35:53.709Z,9.48
2022-12-08T09:38:20.400Z,9.52
2022-12-08T09:40:51.760Z,10.07
2022-12-08T09:43:43.236Z,10.15
2022-12-08T09:46:10.827Z,10.04
2022-12-08T09:48:43.570Z,9.91
2022-12-08T09:51:10.265Z,9.76
2022-12-08T09:53:42.498Z,10.01
2022-12-08T09:56:14.862Z,10.31
2022-12-08T09:59:08.673Z,10.18
2022-12-08T10:01:42.062Z,10.47
2022-12-08T10:04:14.835Z,10.11
2022-12-08T10:06:45.143Z,10.27
2022-12-08T10:09:30.068Z,10.24
2022-12-08T10:12:20.337Z,10.30
2022-12-08T10:15:24.429Z,10.84
2022-12-08T10:17:53.853Z,10.87
2022-12-08T10:20:23.422Z,10.95
2022-12-08T10:22:53.341Z,10.83
2022-12-08T10:25:31.609Z,10.94
2022-12-08T10:27:58.217Z,10.87
2022-12-08T10:30:24.970Z,11.07
2022-12-08T10:32:52.309Z,11.23
2022-12-08T10:35:20.456Z,11.74
2022-12-08T10:38:10.120Z,11.89
2022-12-08T10:40:42.163Z,11.85
2022-12-08T10:43:18.127Z,11.83
2022-12-08T10:45:45.060Z,11.29
2022-12-08T10:48:16.162Z,11.45
2022-12-08T10:50:58.865Z,11.56
2022-12-08T10:53:29.812Z,11.52
2022-12-08T10:56:02.372Z,11.89
2022-12-08T10:58:34.123Z,12.13
2022-12-08T11:01:25.911Z,11.60
2022-12-08T11:03:56.867Z,11.66
2022-12-08T11:06:33.175Z,11.82
2022-12-08T11:09:05.545Z,11.58
2022-12-08T11:12:01.000Z,11.56
2022-12-08T11:14:44.072Z,11.65
2022-12-08T11:17:13.374Z,11.27
2022-12-08T11:19:42.318Z,11.35
2022-12-08T11:22:32.360Z,11.58
2022-12-08T11:25:07.844Z,11.49
2022-12-08T11:27:36.801Z,11.30
2022-12-08T11:30:12.603Z,11.43
2022-12-08T11:32:47.735Z,11.37
2022-12-08T11:35:32.708Z,10.87
2022-12-08T11:38:21.243Z,11.00
2022-12-08T11:40:50.695Z,11.06
2022-12-08T11:43:23.460Z,11.22
2022-12-08T11:45:52.007Z,11.32
2022-12-08T11:48:22.289Z,11.38
2022-12-08T11:51:11.082Z,11.50
2022-12-08T11:54:07.492Z,11.50
2022-12-08T11:56:36.746Z,11.24
2022-12-08T11:59:27.117Z,11.29
2022-12-08T12:01:53.793Z,11.27
2022-12-08T12:04:22.380Z,11.37
2022-12-08T12:06:56.030Z,11.26
2022-12-08T12:09:53.366Z,11.45
2022-12-08T12:12:27.672Z,11.37
2022-12-08T12:15:16.935Z,11.26
2022-12-08T12:18:16.754Z,11.26
2022-12-08T12:21:18.401Z,11.34
2022-12-08T12:23:48.111Z,11.46
2022-12-08T12:26:22.935Z,11.50
2022-12-08T12:28:49.922Z,11.56
2022-12-08T12:31:17.112Z,11.44
2022-12-08T12:33:44.168Z,11.53
2022-12-08T12:36:10.831Z,11.48
2022-12-08T12:38:58.338Z,11.48
2022-12-08T12:41:52.947Z,11.64
2022-12-08T12:44:19.537Z,11.22
2022-12-08T12:46:46.114Z,11.58
2022-12-08T12:49:40.410Z,11.55
2022-12-08T12:52:15.932Z,12.02
2022-12-08T12:55:11.656Z,12.07
2022-12-08T12:57:54.259Z,12.08
2022-12-08T13:00:25.553Z,12.04
2022-12-08T13:02:56.084Z,11.92
2022-12-08T13:05:25.127Z,11.88
2022-12-08T13:08:08.621Z,11.73
2022-12-08T13:10:39.198Z,11.54
2022-12-08T13:13:07.137Z,11.62
2022-12-08T13:15:40.613Z,11.57
2022-12-08T13:18:19.249Z,11.62
2022-12-08T13:20:55.475Z,11.65
2022-12-08T13:23:37.207Z,11.25
2022-12-08T13:26:17.305Z,11.40
2022-12-08T13:28:59.324Z,11.42
2022-12-08T13:31:48.283Z,11.16
2022-12-08T13:34:45.287Z,11.15
2022-12-08T13:37:11.945Z,11.03
2022-12-08T13:39:55.516Z,10.91
2022-12-08T13:42:22.367Z,10.88
2022-12-08T13:45:36.250Z,10.83
2022-12-08T13:49:31.995Z,10.63
2022-12-08T13:57:10.701Z,10.30
2022-12-08T13:59:43.439Z,10.39
2022-12-08T14:02:33.326Z,10.52
2022-12-08T14:07:47.453Z,10.38
2022-12-08T14:10:25.374Z,10.33
2022-12-08T14:12:57.362Z,10.05
2022-12-08T14:15:24.442Z,10.02
2022-12-08T14:17:55.544Z,10.11
2022-12-08T14:20:30.032Z,9.86
2022-12-08T14:22:56.834Z,10.10
2022-12-08T14:25:24.758Z,9.86
2022-12-08T14:27:51.375Z,9.68
2022-12-08T14:30:24.891Z,9.92
2022-12-08T14:32:54.219Z,9.74
2022-12-08T14:35:30.789Z,9.73
2022-12-08T14:38:02.105Z,9.83
2022-12-08T14:40:41.919Z,9.89
2022-12-08T14:43:17.530Z,9.57
2022-12-08T14:45:44.202Z,9.53
2022-12-08T14:48:36.196Z,9.35
2022-12-08T14:51:21.229Z,9.40
2022-12-08T14:54:00.669Z,9.20
2022-12-08T14:56:52.182Z,9.10
2022-12-08T14:59:37.799Z,8.97
2022-12-08T15:02:10.597Z,8.88
2022-12-08T15:04:37.935Z,8.86
2022-12-08T15:07:08.025Z,8.84
2022-12-08T15:09:34.646Z,8.81
2022-12-08T15:12:02.651Z,8.58
2022-12-08T15:14:32.216Z,8.53
2022-12-08T15:16:58.964Z,8.32
2022-12-08T15:19:28.589Z,8.24
2022-12-08T15:21:59.984Z,8.18
2022-12-08T15:24:27.604Z,8.25
2022-12-08T15:26:54.290Z,8.04
2022-12-08T15:29:25.869Z,7.95
2022-12-08T15:31:54.476Z,8.03
2022-12-08T15:34:21.307Z,8.07
2022-12-08T15:36:51.497Z,8.03
2022-12-08T15:39:18.043Z,8.00
2022-12-08T15:41:44.709Z,8.12
2022-12-08T15:44:11.462Z,8.01
2022-12-08T15:46:38.155Z,7.99
2022-12-08T15:49:05.496Z,7.85
2022-12-08T15:51:36.520Z,7.85
2022-12-08T15:54:03.086Z,7.86
2022-12-08T15:56:29.750Z,7.86
2022-12-08T15:58:57.560Z,7.87
2022-12-08T16:01:24.839Z,7.88
2022-12-08T16:09:38.972Z,7.57
2022-12-08T16:16:02.997Z,7.44
2022-12-08T16:18:24.044Z,7.52
2022-12-08T16:21:13.912Z,7.59
2022-12-08T16:23:45.514Z,7.53
2022-12-08T16:26:35.411Z,7.46
2022-12-08T16:29:00.874Z,7.56
2022-12-08T16:31:27.628Z,7.39
2022-12-08T16:33:54.313Z,7.22
2022-12-08T16:36:21.057Z,7.19
2022-12-08T16:38:47.761Z,7.07
2022-12-08T16:41:33.500Z,7.05
2022-12-08T16:44:04.144Z,6.87
2022-12-08T16:46:30.916Z,6.98
2022-12-08T16:48:59.068Z,6.87
2022-12-08T16:51:27.334Z,6.85
2022-12-08T16:53:55.133Z,6.97
2022-12-08T16:56:23.349Z,6.88
2022-12-08T16:58:53.058Z,7.14
2022-12-08T17:01:19.932Z,7.06
2022-12-08T17:04:07.116Z,7.07
2022-12-08T17:06:33.581Z,6.87
2022-12-08T17:09:00.253Z,7.12
2022-12-08T17:11:28.411Z,7.20
2022-12-08T17:13:55.020Z,7.21
2022-12-08T17:16:21.951Z,7.37
2022-12-08T17:18:48.717Z,7.01
2022-12-08T17:21:16.435Z,6.70
2022-12-08T17:23:43.672Z,7.03
2022-12-08T17:26:10.392Z,7.10
2022-12-08T17:28:59.414Z,7.10
2022-12-08T17:31:29.329Z,6.84
2022-12-08T17:34:04.927Z,6.92
2022-12-08T17:36:31.876Z,6.89
2022-12-08T17:38:58.887Z,6.88
2022-12-08T17:41:25.684Z,7.02
2022-12-08T17:43:52.290Z,6.89
2022-12-08T17:46:19.328Z,6.72
2022-12-08T17:48:46.202Z,6.94
2022-12-08T17:51:12.916Z,6.69
2022-12-08T17:53:42.525Z,5.98
2022-12-08T17:56:17.336Z,6.59
2022-12-08T17:58:44.908Z,6.53
2022-12-08T18:01:12.527Z,6.31
2022-12-08T18:03:39.282Z,6.48
2022-12-08T18:06:09.983Z,6.23
2022-12-08T18:08:36.982Z,5.80
2022-12-08T18:11:04.008Z,6.09
2022-12-08T18:13:30.730Z,6.19
2022-12-08T18:15:57.427Z,6.35
2022-12-08T18:18:24.089Z,6.47
2022-12-08T18:20:50.846Z,6.22
2022-12-08T18:23:17.840Z,6.18
2022-12-08T18:25:45.089Z,6.22
2022-12-08T18:28:11.770Z,6.22
2022-12-08T18:30:39.577Z,5.88
2022-12-08T18:33:06.945Z,5.94
2022-12-08T18:35:33.668Z,5.95
2022-12-08T18:38:00.655Z,5.96
2022-12-08T18:40:28.124Z,5.96
2022-12-08T18:42:54.813Z,6.10
2022-12-08T18:45:22.866Z,6.15
2022-12-08T18:47:50.457Z,6.38
2022-12-08T18:50:17.296Z,6.16
2022-12-08T18:52:45.123Z,6.12
2022-12-08T18:55:11.826Z,6.01
2022-12-08T18:57:39.006Z,5.88
2022-12-08T19:00:06.945Z,6.09
2022-12-08T19:02:34.049Z,6.35
2022-12-08T19:05:01.356Z,6.16
2022-12-08T19:07:28.066Z,6.40
2022-12-08T19:09:56.103Z,6.35
2022-12-08T19:12:22.837Z,6.37
2022-12-08T19:14:49.646Z,6.09
2022-12-08T19:17:16.312Z,6.28
2022-12-08T19:19:43.053Z,6.21
2022-12-08T19:22:09.720Z,6.14
2022-12-08T19:24:36.774Z,6.05
2022-12-08T19:27:04.328Z,6.02
2022-12-08T19:29:31.034Z,6.07
2022-12-08T19:31:57.789Z,6.06
2022-12-08T19:34:24.535Z,6.00
2022-12-08T19:36:51.231Z,5.97
2022-12-08T19:39:38.053Z,5.85
2022-12-08T19:42:34.426Z,5.96
2022-12-08T19:45:05.351Z,6.00
2022-12-08T19:47:32.155Z,6.20
2022-12-08T19:50:17.285Z,6.03
2022-12-08T19:52:44.262Z,5.89
2022-12-08T19:55:11.740Z,6.10
2022-12-08T19:57:38.548Z,6.06
2022-12-08T20:00:08.599Z,6.06
2022-12-08T20:02:36.739Z,6.35
2022-12-08T20:05:04.976Z,6.05
2022-12-08T20:07:31.751Z,5.97
2022-12-08T20:09:58.449Z,5.85
2022-12-08T20:12:25.131Z,5.84
2022-12-08T20:14:52.589Z,5.79
2022-12-08T20:17:19.537Z,5.91
2022-12-08T20:19:46.265Z,6.14
2022-12-08T20:22:12.929Z,6.14
2022-12-08T20:24:39.518Z,6.12
2022-12-08T20:27:06.213Z,6.08
2022-12-08T20:29:33.148Z,5.99
2022-12-08T20:31:59.776Z,5.97
2022-12-08T20:34:26.649Z,5.87
2022-12-08T20:36:53.262Z,5.72
2022-12-08T20:39:19.879Z,5.66
2022-12-08T20:41:46.754Z,5.78
2022-12-08T20:44:13.377Z,5.83
2022-12-08T20:46:41.839Z,5.74
2022-12-08T20:49:11.694Z,5.70
2022-12-08T20:51:38.404Z,5.58
2022-12-08T20:54:05.521Z,5.80
2022-12-08T20:56:32.760Z,5.55
2022-12-08T20:58:59.820Z,5.44
2022-12-08T21:01:26.538Z,5.47
2022-12-08T21:03:53.729Z,5.27
2022-12-08T21:06:22.528Z,5.42
2022-12-08T21:08:49.799Z,5.62
2022-12-08T21:11:16.799Z,5.84
2022-12-08T21:13:43.497Z,5.71
2022-12-08T21:16:13.748Z,5.61
2022-12-08T21:18:41.017Z,5.56
2022-12-08T21:21:09.773Z,5.44
2022-12-08T21:23:36.605Z,5.39
2022-12-08T21:26:03.602Z,5.54
2022-12-08T21:28:30.382Z,5.39
2022-12-08T21:30:57.375Z,5.45
2022-12-08T21:33:24.244Z,5.39
2022-12-08T21:35:51.070Z,5.41
2022-12-08T21:38:17.801Z,5.34
2022-12-08T21:40:44.538Z,5.39
2022-12-08T21:43:12.136Z,5.24
2022-12-08T21:45:38.865Z,5.17
2022-12-08T21:48:10.892Z,4.95
2022-12-08T21:50:38.006Z,4.88
2022-12-08T21:53:04.911Z,4.79
2022-12-08T21:55:31.607Z,4.91
2022-12-08T21:58:00.998Z,4.74
2022-12-08T22:00:28.079Z,4.59
2022-12-08T22:02:55.119Z,4.44
2022-12-08T22:05:22.091Z,4.81
2022-12-08T22:07:48.941Z,4.44
2022-12-08T22:10:15.761Z,4.35
2022-12-08T22:12:42.624Z,4.51
2022-12-08T22:15:10.302Z,4.62
2022-12-08T22:17:38.146Z,4.70
2022-12-08T22:20:06.957Z,4.80
2022-12-08T22:22:34.930Z,4.79
2022-12-08T22:25:02.444Z,4.78
2022-12-08T22:27:29.355Z,4.59
2022-12-08T22:29:56.036Z,4.65
2022-12-08T22:32:22.799Z,4.60
2022-12-08T22:34:49.445Z,4.73
2022-12-08T22:37:16.167Z,5.00
2022-12-08T22:39:42.824Z,5.07
2022-12-08T22:42:09.405Z,5.10
2022-12-08T22:44:36.089Z,5.02
2022-12-08T22:47:02.841Z,5.02
2022-12-08T22:49:29.545Z,5.07
2022-12-08T22:51:56.334Z,5.18
2022-12-08T22:54:23.123Z,5.40
2022-12-08T22:56:49.859Z,5.15
2022-12-08T22:59:16.573Z,5.33
2022-12-08T23:01:43.360Z,5.32
2022-12-08T23:04:17.249Z,5.43
2022-12-08T23:06:44.734Z,5.38
2022-12-08T23:09:11.994Z,5.21
2022-12-08T23:11:38.765Z,5.19
2022-12-08T23:14:05.445Z,5.00
2022-12-08T23:16:33.561Z,5.00
2022-12-08T23:19:00.445Z,4.99
2022-12-08T23:21:27.273Z,5.03
2022-12-08T23:23:54.246Z,4.95
2022-12-08T23:26:25.084Z,4.71
2022-12-08T23:28:51.940Z,4.56
2022-12-08T23:31:18.890Z,4.64
2022-12-08T23:33:45.695Z,4.89
2022-12-08T23:36:12.794Z,5.01
2022-12-08T23:38:39.563Z,5.06
2022-12-08T23:41:07.262Z,4.82
2022-12-08T23:43:34.245Z,4.70
2022-12-08T23:46:01.005Z,4.92
2022-12-08T23:48:28.893Z,4.93
2022-12-08T23:50:57.172Z,5.17
2022-12-08T23:53:23.968Z,4.71
2022-12-08T23:55:50.648Z,4.83
2022-12-08T23:58:17.349Z,4.87
